Aérodrome :
LOGIN :

S'inscrire | Disclaimer

   EN    FR    IT 

 










Légende :    VFR   VFR Marginal   IFR   IFR Intensif   IFR Très Intensif
Visi : 
Plafond : 
>= 8 km
>= 3000ft
5 à 8 km
1000 à 3000 ft
1500m à 5 km
500 à 1000 ft
800 à 1500m
200 à 500 ft
< 800m
< 200 ft
Symboles :   Orages  Brouillard  Fortes neiges  Fortes précipitations  Vent > 20 kt
SIGMETs :   Divers  Orages  Givrage  Turbulence  Onde Orograph.  Cendres Volcan.







- Altitude de l'aérodrome : 479 ft
- Code IATA : DOL
- Voir les cartes d'approche


LFRG - Deauville

DERNIER METAR :
  • 172300Z AUTO 20005KT CAVOK 01/01 Q1025

METARs EXPIRÉS :
  • 172230Z AUTO 21004KT CAVOK 01/01 Q1025
  • 172200Z AUTO 21005KT CAVOK 02/01 Q1025
  • 172130Z AUTO 20002KT CAVOK 03/02 Q1024
  • 172100Z AUTO 22002KT 9999 FEW035 SCT170 BKN210 02/02 Q1024 BECMG 2000 BR
  • 172030Z AUTO 21001KT 9999 BKN034 OVC200 02/02 Q1024 BECMG 2000 BR

TAF TAF LFRG
Valide du 17 à 15h jusqu'au 18 à 00h UTC


171400Z 1715/1724 VRB05KT 9999 FEW040
BECMG 1720/1722 2000 BR
ATIS : +33 2 31 65 65 36
Pas de NOTAMs connus pour ce terrain.



MET'MAP, la Météo Aéronautique d'un coup d'oeil ! - Copyright ORBIFLY Décembre 2007 - Disclaimer

ORBIFLY MET'MAP TEAM :

Programmation & Développement : Alexandra Zaïnal
Conception & Développement : Baudouin d'Aumeries
Co-Programmation & Développement : Marc-Olivier Méhu
Soutien technique & logistique : Manuel Goepfert

Contact : metmap@orbifly.com




SOURCES & CREDITS :

   NOAA